LIEO Airport Information

Runway Information
Runway 05 Length 8025 ft width 148 ft
Elevation 35 ft Threshold 805 ft Heading 53
Runway 23 Length 8025 ft Width 148 ft
Elevation 19 ft Threshold 495 ft Heading 233
Airport Frequencies
Type APP Name OLBIA RADA Frequency 125.95 MHZ
Type ATIS Name ATIS Frequency 113.9 MHZ
Type TWR Name OLBIA TWR Frequency 118.975 MHZ
Airport Navaids
Type VOR-DME Name Olbia Costa Smeralda Frequency 113900 KHZ
Type NDB Name Olbia Costa Smeralda Frequency 357 KHZ
Airport Weather Information & NOTAM
ADDS - METARS form results

(0929 UTC 17 October 2021)
Data provider http://aviationweather.gov/metar/data/
 
METAR text: LIEO 170920Z 33003KT 260V070 9999 FEW030 20/12 Q1019
Conditions at: LIEO (OLBIA/COSTA SMER, IT) observed 0920 UTC 17 October 2021
Temperature: 20.0°C (68°F)
Dewpoint: 12.0°C (54°F) [RH = 60%]
Pressure (altimeter): 30.09 inches Hg (1019.0 mb)
Winds: from the NNW (330 degrees) at 3 MPH (3 knots; 1.5 m/s)
Visibility: 6 or more miles (10+ km)
Ceiling: at least 12,000 feet AGL
Clouds: few clouds at 3000 feet AGL
Weather: no significant weather observed at this time

METAR text: LIEO 170850Z VRB03KT 9999 FEW030 19/11 Q1019
Conditions at: LIEO (OLBIA/COSTA SMER, IT) observed 0850 UTC 17 October 2021
Temperature: 19.0°C (66°F)
Dewpoint: 11.0°C (52°F) [RH = 60%]
Pressure (altimeter): 30.09 inches Hg (1019.0 mb)
Winds: variable direction winds at 3 MPH (3 knots; 1.5 m/s)
Visibility: 6 or more miles (10+ km)
Ceiling: at least 12,000 feet AGL
Clouds: few clouds at 3000 feet AGL
Weather: no significant weather observed at this time

Forecast for: LIEO (OLBIA/COSTA SMER, IT)
Text: TAF LIEO 170500Z 1706/1806 24006KT 9999 SCT040
Forecast period: 0600 to 0800 UTC 17 October 2021
Forecast type: FROM: standard forecast or significant change
Winds: from the WSW (240 degrees) at 7 MPH (6 knots; 3.1 m/s)
Visibility: 6 or more miles (10+ km)
Ceiling: at least 12,000 feet AGL
Clouds: scattered clouds at 4000 feet AGL
Weather: no significant weather forecast for this period
Text: BECMG 1708/1710 04010KT
Forecast period: 0800 to 1800 UTC 17 October 2021
Forecast type: BECOMING: Conditions expected to become as follows by 1000 UTC 17 October 2021
Winds: from the NE (40 degrees) at 12 MPH (10 knots; 5.1 m/s)
Visibility: 6 or more miles (10+ km)
Ceiling: at least 12,000 feet AGL
Clouds: scattered clouds at 4000 feet AGL
Weather: no significant weather forecast for this period
Text: BECMG 1718/1720 VRB04KT
Forecast period: 1800 UTC 17 October 2021 to 0600 UTC 18 October 2021
Forecast type: BECOMING: Conditions expected to become as follows by 2000 UTC 17 October 2021
Winds: variable direction winds at 5 MPH (4 knots; 2.1 m/s)
Visibility: 6 or more miles (10+ km)
Ceiling: at least 12,000 feet AGL
Clouds: scattered clouds at 4000 feet AGL
Weather: no significant weather forecast for this period